createdAt,value
2018-03-24T09:28:11.508Z,44.80
2018-03-24T09:30:38.540Z,44.50
2018-03-24T09:33:06.368Z,43.70
2018-03-24T09:35:35.047Z,41.80
2018-03-24T09:38:02.066Z,42.80
2018-03-24T09:40:31.080Z,43.40
2018-03-24T10:10:21.723Z,39.40
2018-03-24T10:12:48.737Z,39.80
2018-03-24T10:15:16.529Z,37.50
2018-03-24T10:17:43.539Z,37.50
2018-03-24T10:20:11.999Z,35.80
2018-03-24T10:22:44.896Z,37.70
2018-03-24T10:25:12.523Z,37.50
2018-03-24T10:27:39.559Z,38.60
2018-03-24T10:30:07.985Z,36.70
2018-03-24T10:45:58.424Z,36.10
2018-03-24T10:48:25.488Z,35.40
2018-03-24T10:50:52.649Z,36.50
2018-03-24T10:53:19.684Z,35.40
2018-03-24T10:55:46.693Z,36.20
2018-03-24T10:58:13.722Z,35.30
2018-03-24T11:00:40.767Z,35.60
2018-03-24T11:06:04.462Z,35.30
2018-03-24T11:08:31.487Z,36.30
2018-03-24T11:10:58.517Z,34.80
2018-03-24T11:13:25.511Z,34.30
2018-03-24T11:15:52.523Z,36.10
2018-03-24T11:18:20.292Z,34.60
2018-03-24T11:23:22.744Z,33.90
2018-03-24T11:25:49.787Z,33.90
2018-03-24T11:31:15.246Z,34.50
2018-03-24T11:33:42.595Z,35.30
2018-03-24T11:36:09.609Z,35.80
2018-03-24T11:38:37.060Z,35.40
2018-03-24T11:41:04.067Z,36.20
2018-03-24T11:43:31.083Z,34.20
2018-03-24T11:45:58.088Z,32.70
2018-03-24T11:48:25.094Z,33.60
2018-03-24T11:50:52.093Z,35.00
2018-03-24T11:53:19.102Z,35.50
2018-03-24T11:55:46.108Z,34.10
2018-03-24T11:58:13.569Z,34.70
2018-03-24T12:00:40.593Z,33.40
2018-03-24T12:03:07.605Z,32.80
2018-03-24T12:05:34.620Z,34.40
2018-03-24T12:08:02.075Z,34.00
2018-03-24T12:10:29.523Z,34.80
2018-03-24T12:12:56.991Z,34.10
2018-03-24T12:15:23.994Z,34.70
2018-03-24T12:17:52.292Z,34.90
2018-03-24T12:20:19.752Z,35.20
2018-03-24T12:22:47.225Z,35.10
2018-03-24T12:25:14.272Z,35.90
2018-03-24T12:27:41.733Z,34.10
2018-03-24T12:30:09.504Z,35.50
2018-03-24T12:32:37.279Z,34.40
2018-03-24T12:35:04.297Z,34.40
2018-03-24T12:37:31.314Z,34.50
2018-03-24T12:39:59.049Z,36.20
2018-03-24T12:42:26.063Z,36.80
2018-03-24T12:44:53.891Z,34.40
2018-03-24T12:47:20.919Z,34.00
2018-03-24T12:49:47.926Z,36.20
2018-03-24T12:52:15.705Z,34.50
2018-03-24T12:54:42.714Z,34.50
2018-03-24T12:57:09.721Z,35.50
2018-03-24T12:59:36.746Z,34.70
2018-03-24T13:02:04.203Z,36.90
2018-03-24T13:04:31.227Z,35.20
2018-03-24T13:06:59.002Z,34.50
2018-03-24T13:09:26.459Z,34.50
2018-03-24T13:11:53.915Z,34.60
2018-03-24T13:14:20.927Z,34.40
2018-03-24T13:16:47.936Z,36.00
2018-03-24T13:19:15.799Z,34.40
2018-03-24T13:21:42.795Z,34.90
2018-03-24T13:24:09.860Z,34.80
2018-03-24T13:29:56.304Z,34.80
2018-03-24T13:32:23.788Z,35.00
2018-03-24T13:38:03.202Z,35.80
2018-03-24T13:40:30.668Z,36.20
2018-03-24T13:42:58.113Z,37.10
2018-03-24T13:45:25.572Z,34.70
2018-03-24T13:47:52.591Z,35.50
2018-03-24T13:50:19.627Z,33.60
2018-03-24T13:52:47.415Z,34.30
2018-03-24T13:55:16.540Z,34.80
2018-03-24T13:57:44.011Z,34.70
2018-03-24T14:00:11.505Z,35.80
2018-03-24T14:02:39.496Z,36.10
2018-03-24T14:05:06.531Z,36.10
2018-03-24T14:07:37.338Z,36.70
2018-03-24T14:10:05.193Z,36.20
2018-03-24T14:15:18.908Z,36.20
2018-03-24T14:17:46.197Z,38.10
2018-03-24T14:20:14.896Z,38.70
2018-03-24T14:38:02.461Z,40.30
2018-03-24T14:41:00.483Z,39.20
2018-03-24T14:55:40.005Z,40.90
2018-03-24T15:55:48.118Z,41.90
